sensor_id;sensor_type;location;lat;lon;timestamp;temperature;humidity
23801;DHT22;12081;48.614;10.226;2023-08-06T00:01:00;14.20;99.90
23801;DHT22;12081;48.614;10.226;2023-08-06T00:03:45;14.70;99.90
23801;DHT22;12081;48.614;10.226;2023-08-06T00:06:29;15.30;99.90
23801;DHT22;12081;48.614;10.226;2023-08-06T00:09:13;14.40;99.90
23801;DHT22;12081;48.614;10.226;2023-08-06T00:11:57;14.50;99.90
23801;DHT22;12081;48.614;10.226;2023-08-06T00:14:42;13.90;99.90
23801;DHT22;12081;48.614;10.226;2023-08-06T00:17:26;14.80;99.90
23801;DHT22;12081;48.614;10.226;2023-08-06T00:20:11;15.00;99.90
23801;DHT22;12081;48.614;10.226;2023-08-06T00:22:55;13.00;99.90
23801;DHT22;12081;48.614;10.226;2023-08-06T00:25:39;14.80;99.90
23801;DHT22;12081;48.614;10.226;2023-08-06T00:28:24;14.20;99.90
23801;DHT22;12081;48.614;10.226;2023-08-06T00:31:08;12.90;99.90
23801;DHT22;12081;48.614;10.226;2023-08-06T01:39:40;13.10;99.90
23801;DHT22;12081;48.614;10.226;2023-08-06T01:42:26;13.00;99.90
23801;DHT22;12081;48.614;10.226;2023-08-06T03:52:33;12.40;99.90
23801;DHT22;12081;48.614;10.226;2023-08-06T03:55:17;12.40;99.90
23801;DHT22;12081;48.614;10.226;2023-08-06T03:57:59;12.70;99.90
23801;DHT22;12081;48.614;10.226;2023-08-06T05:30:51;12.80;99.90
23801;DHT22;12081;48.614;10.226;2023-08-06T05:33:35;12.90;99.90
23801;DHT22;12081;48.614;10.226;2023-08-06T05:36:19;12.90;99.90
23801;DHT22;12081;48.614;10.226;2023-08-06T05:39:03;13.30;99.90
23801;DHT22;12081;48.614;10.226;2023-08-06T05:41:48;13.00;99.90
23801;DHT22;12081;48.614;10.226;2023-08-06T05:44:34;13.00;99.90
23801;DHT22;12081;48.614;10.226;2023-08-06T05:47:18;14.40;99.90
23801;DHT22;12081;48.614;10.226;2023-08-06T05:50:03;13.10;99.90
23801;DHT22;12081;48.614;10.226;2023-08-06T05:52:48;13.10;99.90
23801;DHT22;12081;48.614;10.226;2023-08-06T05:55:33;13.40;99.90
23801;DHT22;12081;48.614;10.226;2023-08-06T05:58:17;13.50;99.90
23801;DHT22;12081;48.614;10.226;2023-08-06T06:01:04;13.20;99.90
23801;DHT22;12081;48.614;10.226;2023-08-06T06:03:48;13.30;99.90
23801;DHT22;12081;48.614;10.226;2023-08-06T06:06:31;13.30;99.90
23801;DHT22;12081;48.614;10.226;2023-08-06T06:09:16;13.90;99.90
23801;DHT22;12081;48.614;10.226;2023-08-06T06:12:00;13.40;99.90
23801;DHT22;12081;48.614;10.226;2023-08-06T06:14:44;13.50;99.90
23801;DHT22;12081;48.614;10.226;2023-08-06T06:17:29;13.50;99.90
23801;DHT22;12081;48.614;10.226;2023-08-06T06:20:13;13.90;99.90
23801;DHT22;12081;48.614;10.226;2023-08-06T06:22:57;13.80;99.90
23801;DHT22;12081;48.614;10.226;2023-08-06T06:25:49;14.50;99.90
23801;DHT22;12081;48.614;10.226;2023-08-06T06:28:35;14.20;99.90
23801;DHT22;12081;48.614;10.226;2023-08-06T06:31:19;14.60;99.90
23801;DHT22;12081;48.614;10.226;2023-08-06T06:34:03;15.30;99.90
23801;DHT22;12081;48.614;10.226;2023-08-06T06:36:47;14.70;99.90
23801;DHT22;12081;48.614;10.226;2023-08-06T06:39:31;15.00;99.90
23801;DHT22;12081;48.614;10.226;2023-08-06T06:42:16;14.60;99.90
23801;DHT22;12081;48.614;10.226;2023-08-06T06:45:00;14.60;99.90
23801;DHT22;12081;48.614;10.226;2023-08-06T06:47:44;14.60;99.90
23801;DHT22;12081;48.614;10.226;2023-08-06T06:50:28;14.50;99.90
23801;DHT22;12081;48.614;10.226;2023-08-06T06:53:12;15.60;99.90
23801;DHT22;12081;48.614;10.226;2023-08-06T06:58:36;15.30;99.90
23801;DHT22;12081;48.614;10.226;2023-08-06T07:01:22;15.70;99.90
23801;DHT22;12081;48.614;10.226;2023-08-06T07:04:06;15.60;99.90
23801;DHT22;12081;48.614;10.226;2023-08-06T07:06:50;15.80;99.90
23801;DHT22;12081;48.614;10.226;2023-08-06T07:09:36;15.90;99.90
23801;DHT22;12081;48.614;10.226;2023-08-06T07:12:20;16.50;99.90
23801;DHT22;12081;48.614;10.226;2023-08-06T07:15:06;15.50;99.90
23801;DHT22;12081;48.614;10.226;2023-08-06T07:17:50;15.50;99.90
23801;DHT22;12081;48.614;10.226;2023-08-06T07:20:35;15.60;99.90
23801;DHT22;12081;48.614;10.226;2023-08-06T07:23:23;15.60;99.90
23801;DHT22;12081;48.614;10.226;2023-08-06T07:26:08;15.60;99.90
23801;DHT22;12081;48.614;10.226;2023-08-06T07:28:53;15.70;99.90
23801;DHT22;12081;48.614;10.226;2023-08-06T07:31:37;16.00;99.90
23801;DHT22;12081;48.614;10.226;2023-08-06T07:34:21;17.10;99.90
23801;DHT22;12081;48.614;10.226;2023-08-06T07:37:05;15.90;99.90
23801;DHT22;12081;48.614;10.226;2023-08-06T07:39:49;16.30;99.90
23801;DHT22;12081;48.614;10.226;2023-08-06T07:42:33;15.10;99.90
23801;DHT22;12081;48.614;10.226;2023-08-06T07:45:18;14.90;99.90
23801;DHT22;12081;48.614;10.226;2023-08-06T07:48:03;15.00;99.90
23801;DHT22;12081;48.614;10.226;2023-08-06T07:50:51;15.00;99.90
23801;DHT22;12081;48.614;10.226;2023-08-06T07:53:37;15.10;99.90
23801;DHT22;12081;48.614;10.226;2023-08-06T07:56:21;15.20;99.90
23801;DHT22;12081;48.614;10.226;2023-08-06T07:59:05;14.70;99.90
23801;DHT22;12081;48.614;10.226;2023-08-06T08:01:49;14.60;99.90
23801;DHT22;12081;48.614;10.226;2023-08-06T08:04:33;15.00;99.90
23801;DHT22;12081;48.614;10.226;2023-08-06T08:07:18;15.40;99.90
23801;DHT22;12081;48.614;10.226;2023-08-06T08:10:02;15.70;99.90
23801;DHT22;12081;48.614;10.226;2023-08-06T08:12:50;15.80;99.90
23801;DHT22;12081;48.614;10.226;2023-08-06T08:15:34;17.10;99.90
23801;DHT22;12081;48.614;10.226;2023-08-06T08:18:18;17.80;99.90
23801;DHT22;12081;48.614;10.226;2023-08-06T08:21:02;17.90;99.90
23801;DHT22;12081;48.614;10.226;2023-08-06T08:23:46;17.80;99.90
23801;DHT22;12081;48.614;10.226;2023-08-06T08:26:31;17.40;99.90
23801;DHT22;12081;48.614;10.226;2023-08-06T08:29:15;16.80;99.90
23801;DHT22;12081;48.614;10.226;2023-08-06T08:31:59;17.60;99.90
23801;DHT22;12081;48.614;10.226;2023-08-06T08:34:43;17.50;99.90
23801;DHT22;12081;48.614;10.226;2023-08-06T08:37:28;16.10;99.90
23801;DHT22;12081;48.614;10.226;2023-08-06T08:40:14;16.70;99.90
23801;DHT22;12081;48.614;10.226;2023-08-06T08:42:59;17.50;99.90
23801;DHT22;12081;48.614;10.226;2023-08-06T08:45:46;16.40;99.90
23801;DHT22;12081;48.614;10.226;2023-08-06T08:48:33;16.40;99.90
23801;DHT22;12081;48.614;10.226;2023-08-06T08:51:17;16.50;99.90
23801;DHT22;12081;48.614;10.226;2023-08-06T08:54:03;16.40;99.90
23801;DHT22;12081;48.614;10.226;2023-08-06T08:56:47;16.20;99.90
23801;DHT22;12081;48.614;10.226;2023-08-06T08:59:33;16.70;99.90
23801;DHT22;12081;48.614;10.226;2023-08-06T09:02:18;15.90;99.90
23801;DHT22;12081;48.614;10.226;2023-08-06T09:05:05;15.90;99.90
23801;DHT22;12081;48.614;10.226;2023-08-06T09:07:52;15.30;99.90
23801;DHT22;12081;48.614;10.226;2023-08-06T09:10:36;15.10;99.90
23801;DHT22;12081;48.614;10.226;2023-08-06T09:13:22;15.50;99.90
23801;DHT22;12081;48.614;10.226;2023-08-06T09:16:07;14.40;99.90
23801;DHT22;12081;48.614;10.226;2023-08-06T09:18:51;14.40;99.90
23801;DHT22;12081;48.614;10.226;2023-08-06T09:21:39;14.70;99.90
23801;DHT22;12081;48.614;10.226;2023-08-06T09:24:23;15.30;99.90
23801;DHT22;12081;48.614;10.226;2023-08-06T09:27:12;15.90;99.90
23801;DHT22;12081;48.614;10.226;2023-08-06T09:29:57;17.10;99.90
23801;DHT22;12081;48.614;10.226;2023-08-06T09:32:50;16.10;99.90
23801;DHT22;12081;48.614;10.226;2023-08-06T09:35:35;16.00;99.90
23801;DHT22;12081;48.614;10.226;2023-08-06T09:38:19;15.90;99.90
23801;DHT22;12081;48.614;10.226;2023-08-06T09:41:03;16.00;99.90
23801;DHT22;12081;48.614;10.226;2023-08-06T09:43:47;17.00;99.90
23801;DHT22;12081;48.614;10.226;2023-08-06T09:46:32;15.90;99.90
23801;DHT22;12081;48.614;10.226;2023-08-06T09:49:18;15.80;99.90
23801;DHT22;12081;48.614;10.226;2023-08-06T09:52:03;15.70;99.90
23801;DHT22;12081;48.614;10.226;2023-08-06T09:54:50;15.30;99.90
23801;DHT22;12081;48.614;10.226;2023-08-06T09:57:35;15.30;99.90
23801;DHT22;12081;48.614;10.226;2023-08-06T10:00:19;15.10;99.90
23801;DHT22;12081;48.614;10.226;2023-08-06T10:03:03;14.80;99.90
23801;DHT22;12081;48.614;10.226;2023-08-06T10:05:48;15.80;99.90
23801;DHT22;12081;48.614;10.226;2023-08-06T10:08:33;14.80;99.90
23801;DHT22;12081;48.614;10.226;2023-08-06T10:11:17;14.90;99.90
23801;DHT22;12081;48.614;10.226;2023-08-06T10:14:14;15.00;99.90
23801;DHT22;12081;48.614;10.226;2023-08-06T10:17:00;15.00;99.90
23801;DHT22;12081;48.614;10.226;2023-08-06T10:19:46;15.20;99.90
23801;DHT22;12081;48.614;10.226;2023-08-06T10:22:32;15.40;99.90
23801;DHT22;12081;48.614;10.226;2023-08-06T10:25:17;15.50;99.90
23801;DHT22;12081;48.614;10.226;2023-08-06T10:28:07;16.30;99.90
23801;DHT22;12081;48.614;10.226;2023-08-06T10:30:53;15.90;99.90
23801;DHT22;12081;48.614;10.226;2023-08-06T10:33:46;16.10;99.90
23801;DHT22;12081;48.614;10.226;2023-08-06T10:36:30;16.40;99.90
23801;DHT22;12081;48.614;10.226;2023-08-06T10:39:17;16.60;99.90
23801;DHT22;12081;48.614;10.226;2023-08-06T10:42:01;16.80;99.90
23801;DHT22;12081;48.614;10.226;2023-08-06T10:47:57;17.10;99.90
23801;DHT22;12081;48.614;10.226;2023-08-06T10:50:42;17.80;99.90
23801;DHT22;12081;48.614;10.226;2023-08-06T10:53:26;18.40;99.90
23801;DHT22;12081;48.614;10.226;2023-08-06T10:56:18;19.00;99.90
23801;DHT22;12081;48.614;10.226;2023-08-06T10:59:02;19.20;99.90
23801;DHT22;12081;48.614;10.226;2023-08-06T11:01:46;19.40;99.90
23801;DHT22;12081;48.614;10.226;2023-08-06T11:04:31;18.70;99.90
23801;DHT22;12081;48.614;10.226;2023-08-06T11:07:16;18.50;99.90
23801;DHT22;12081;48.614;10.226;2023-08-06T11:10:08;18.30;99.90
23801;DHT22;12081;48.614;10.226;2023-08-06T11:12:52;18.00;99.90
23801;DHT22;12081;48.614;10.226;2023-08-06T11:15:36;18.10;99.90
23801;DHT22;12081;48.614;10.226;2023-08-06T11:18:21;18.30;99.90
23801;DHT22;12081;48.614;10.226;2023-08-06T11:21:05;18.30;99.90
23801;DHT22;12081;48.614;10.226;2023-08-06T11:23:50;18.80;99.90
23801;DHT22;12081;48.614;10.226;2023-08-06T11:26:36;18.50;99.90
23801;DHT22;12081;48.614;10.226;2023-08-06T11:29:20;18.10;99.90
23801;DHT22;12081;48.614;10.226;2023-08-06T11:32:07;17.60;99.90
23801;DHT22;12081;48.614;10.226;2023-08-06T11:34:53;17.40;99.90
23801;DHT22;12081;48.614;10.226;2023-08-06T11:37:43;17.10;99.90
23801;DHT22;12081;48.614;10.226;2023-08-06T11:40:27;17.20;99.90
23801;DHT22;12081;48.614;10.226;2023-08-06T11:43:14;16.70;99.90
23801;DHT22;12081;48.614;10.226;2023-08-06T11:45:59;17.00;99.90
23801;DHT22;12081;48.614;10.226;2023-08-06T11:48:54;17.30;99.90
23801;DHT22;12081;48.614;10.226;2023-08-06T11:51:39;18.10;99.90
23801;DHT22;12081;48.614;10.226;2023-08-06T11:54:32;18.80;99.90
23801;DHT22;12081;48.614;10.226;2023-08-06T11:57:21;18.90;99.90
23801;DHT22;12081;48.614;10.226;2023-08-06T12:02:52;19.10;99.90
23801;DHT22;12081;48.614;10.226;2023-08-06T12:05:37;18.50;99.90
23801;DHT22;12081;48.614;10.226;2023-08-06T12:08:26;18.50;99.90
23801;DHT22;12081;48.614;10.226;2023-08-06T12:11:11;17.80;99.90
23801;DHT22;12081;48.614;10.226;2023-08-06T12:13:55;17.60;99.90
23801;DHT22;12081;48.614;10.226;2023-08-06T12:16:40;17.40;99.90
23801;DHT22;12081;48.614;10.226;2023-08-06T12:19:24;16.80;99.90
23801;DHT22;12081;48.614;10.226;2023-08-06T12:22:08;16.50;99.90
23801;DHT22;12081;48.614;10.226;2023-08-06T12:24:52;15.60;99.90
23801;DHT22;12081;48.614;10.226;2023-08-06T12:27:41;16.80;99.90
23801;DHT22;12081;48.614;10.226;2023-08-06T12:30:26;16.30;99.90
23801;DHT22;12081;48.614;10.226;2023-08-06T12:33:10;16.10;99.90
23801;DHT22;12081;48.614;10.226;2023-08-06T12:35:54;16.50;99.90
23801;DHT22;12081;48.614;10.226;2023-08-06T12:38:38;15.30;99.90
23801;DHT22;12081;48.614;10.226;2023-08-06T12:41:23;15.30;99.90
23801;DHT22;12081;48.614;10.226;2023-08-06T12:44:06;15.10;99.90
23801;DHT22;12081;48.614;10.226;2023-08-06T12:46:51;15.20;99.90
23801;DHT22;12081;48.614;10.226;2023-08-06T12:49:38;14.70;99.90
23801;DHT22;12081;48.614;10.226;2023-08-06T12:52:22;15.00;99.90
23801;DHT22;12081;48.614;10.226;2023-08-06T12:55:07;15.10;99.90
23801;DHT22;12081;48.614;10.226;2023-08-06T12:58:05;15.10;99.90
23801;DHT22;12081;48.614;10.226;2023-08-06T13:00:49;15.20;99.90
23801;DHT22;12081;48.614;10.226;2023-08-06T13:03:33;14.90;99.90
23801;DHT22;12081;48.614;10.226;2023-08-06T13:06:17;14.40;99.90
23801;DHT22;12081;48.614;10.226;2023-08-06T13:09:06;14.40;99.90
23801;DHT22;12081;48.614;10.226;2023-08-06T13:11:52;15.10;99.90
23801;DHT22;12081;48.614;10.226;2023-08-06T13:14:36;14.40;99.90
23801;DHT22;12081;48.614;10.226;2023-08-06T13:17:21;14.70;99.90
23801;DHT22;12081;48.614;10.226;2023-08-06T13:20:05;14.50;99.90
23801;DHT22;12081;48.614;10.226;2023-08-06T13:22:50;14.50;99.90
23801;DHT22;12081;48.614;10.226;2023-08-06T13:25:37;14.60;99.90
23801;DHT22;12081;48.614;10.226;2023-08-06T13:28:21;15.30;99.90
23801;DHT22;12081;48.614;10.226;2023-08-06T13:31:05;14.20;99.90
23801;DHT22;12081;48.614;10.226;2023-08-06T13:33:49;14.40;99.90
23801;DHT22;12081;48.614;10.226;2023-08-06T13:36:33;15.70;99.90
23801;DHT22;12081;48.614;10.226;2023-08-06T13:39:18;14.20;99.90
23801;DHT22;12081;48.614;10.226;2023-08-06T13:42:02;14.00;99.90
23801;DHT22;12081;48.614;10.226;2023-08-06T13:44:46;14.10;99.90
23801;DHT22;12081;48.614;10.226;2023-08-06T13:47:30;14.50;99.90
23801;DHT22;12081;48.614;10.226;2023-08-06T13:50:14;14.30;99.90
23801;DHT22;12081;48.614;10.226;2023-08-06T13:52:58;14.10;99.90
23801;DHT22;12081;48.614;10.226;2023-08-06T13:55:42;14.10;99.90
23801;DHT22;12081;48.614;10.226;2023-08-06T13:58:26;15.40;99.90
23801;DHT22;12081;48.614;10.226;2023-08-06T14:01:11;14.60;99.90
23801;DHT22;12081;48.614;10.226;2023-08-06T14:03:55;14.50;99.90
23801;DHT22;12081;48.614;10.226;2023-08-06T14:06:39;13.90;99.90
23801;DHT22;12081;48.614;10.226;2023-08-06T14:09:23;13.70;99.90
23801;DHT22;12081;48.614;10.226;2023-08-06T14:12:07;13.70;99.90
23801;DHT22;12081;48.614;10.226;2023-08-06T14:14:51;15.70;99.90
23801;DHT22;12081;48.614;10.226;2023-08-06T14:17:35;14.20;99.90
23801;DHT22;12081;48.614;10.226;2023-08-06T14:20:19;13.90;99.90
23801;DHT22;12081;48.614;10.226;2023-08-06T14:23:03;14.40;99.90
23801;DHT22;12081;48.614;10.226;2023-08-06T14:25:47;14.00;99.90
23801;DHT22;12081;48.614;10.226;2023-08-06T14:28:31;13.90;99.90
23801;DHT22;12081;48.614;10.226;2023-08-06T14:31:15;13.90;99.90
23801;DHT22;12081;48.614;10.226;2023-08-06T14:33:59;14.10;99.90
23801;DHT22;12081;48.614;10.226;2023-08-06T14:36:44;14.30;99.90
23801;DHT22;12081;48.614;10.226;2023-08-06T14:39:28;14.30;99.90
23801;DHT22;12081;48.614;10.226;2023-08-06T14:42:12;14.30;99.90
23801;DHT22;12081;48.614;10.226;2023-08-06T14:44:56;14.50;99.90
23801;DHT22;12081;48.614;10.226;2023-08-06T14:47:40;14.60;99.90
23801;DHT22;12081;48.614;10.226;2023-08-06T14:50:24;14.70;99.90
23801;DHT22;12081;48.614;10.226;2023-08-06T14:53:08;14.90;99.90
23801;DHT22;12081;48.614;10.226;2023-08-06T14:55:54;14.60;99.90
23801;DHT22;12081;48.614;10.226;2023-08-06T14:58:38;14.80;99.90
23801;DHT22;12081;48.614;10.226;2023-08-06T15:01:22;14.80;99.90
23801;DHT22;12081;48.614;10.226;2023-08-06T15:04:06;14.70;99.90
23801;DHT22;12081;48.614;10.226;2023-08-06T15:06:50;14.60;99.90
23801;DHT22;12081;48.614;10.226;2023-08-06T15:09:34;14.30;99.90
23801;DHT22;12081;48.614;10.226;2023-08-06T15:12:18;15.20;99.90
23801;DHT22;12081;48.614;10.226;2023-08-06T15:15:05;15.00;99.90
23801;DHT22;12081;48.614;10.226;2023-08-06T15:17:50;14.70;99.90
23801;DHT22;12081;48.614;10.226;2023-08-06T15:20:34;14.60;99.90
23801;DHT22;12081;48.614;10.226;2023-08-06T15:23:18;14.60;99.90
23801;DHT22;12081;48.614;10.226;2023-08-06T15:26:02;14.40;99.90
23801;DHT22;12081;48.614;10.226;2023-08-06T15:28:46;14.40;99.90
23801;DHT22;12081;48.614;10.226;2023-08-06T15:31:36;14.90;99.90
23801;DHT22;12081;48.614;10.226;2023-08-06T15:34:21;14.50;99.90
23801;DHT22;12081;48.614;10.226;2023-08-06T15:37:06;14.50;99.90
23801;DHT22;12081;48.614;10.226;2023-08-06T15:39:52;14.40;99.90
23801;DHT22;12081;48.614;10.226;2023-08-06T15:42:36;14.40;99.90
23801;DHT22;12081;48.614;10.226;2023-08-06T15:45:20;14.00;99.90
23801;DHT22;12081;48.614;10.226;2023-08-06T15:48:04;13.70;99.90
23801;DHT22;12081;48.614;10.226;2023-08-06T15:50:48;13.60;99.90
23801;DHT22;12081;48.614;10.226;2023-08-06T15:53:33;13.60;99.90
23801;DHT22;12081;48.614;10.226;2023-08-06T15:56:17;13.60;99.90
23801;DHT22;12081;48.614;10.226;2023-08-06T15:59:30;14.60;99.90
23801;DHT22;12081;48.614;10.226;2023-08-06T16:02:14;13.70;99.90
23801;DHT22;12081;48.614;10.226;2023-08-06T16:04:59;13.60;99.90
23801;DHT22;12081;48.614;10.226;2023-08-06T16:07:43;13.60;99.90
23801;DHT22;12081;48.614;10.226;2023-08-06T16:10:27;13.60;99.90
23801;DHT22;12081;48.614;10.226;2023-08-06T16:13:12;13.70;99.90
23801;DHT22;12081;48.614;10.226;2023-08-06T16:15:56;13.60;99.90
23801;DHT22;12081;48.614;10.226;2023-08-06T16:18:40;14.00;99.90
23801;DHT22;12081;48.614;10.226;2023-08-06T16:21:25;13.80;99.90
23801;DHT22;12081;48.614;10.226;2023-08-06T16:24:09;14.40;99.90
23801;DHT22;12081;48.614;10.226;2023-08-06T16:26:53;13.70;99.90
23801;DHT22;12081;48.614;10.226;2023-08-06T16:29:37;13.70;99.90
23801;DHT22;12081;48.614;10.226;2023-08-06T16:32:21;13.60;99.90
23801;DHT22;12081;48.614;10.226;2023-08-06T16:35:06;14.00;99.90
23801;DHT22;12081;48.614;10.226;2023-08-06T16:37:50;13.60;99.90
23801;DHT22;12081;48.614;10.226;2023-08-06T16:40:35;13.60;99.90
23801;DHT22;12081;48.614;10.226;2023-08-06T16:43:19;15.80;99.90
23801;DHT22;12081;48.614;10.226;2023-08-06T16:46:03;13.60;99.90
23801;DHT22;12081;48.614;10.226;2023-08-06T16:48:47;13.60;99.90
23801;DHT22;12081;48.614;10.226;2023-08-06T16:51:32;13.60;99.90
23801;DHT22;12081;48.614;10.226;2023-08-06T16:54:16;13.50;99.90
23801;DHT22;12081;48.614;10.226;2023-08-06T16:57:00;13.40;99.90
23801;DHT22;12081;48.614;10.226;2023-08-06T16:59:45;14.40;99.90
23801;DHT22;12081;48.614;10.226;2023-08-06T17:02:29;13.40;99.90
23801;DHT22;12081;48.614;10.226;2023-08-06T17:05:13;13.10;99.90
23801;DHT22;12081;48.614;10.226;2023-08-06T17:07:57;13.00;99.90
23801;DHT22;12081;48.614;10.226;2023-08-06T17:10:42;13.70;99.90
23801;DHT22;12081;48.614;10.226;2023-08-06T17:13:26;12.90;99.90
23801;DHT22;12081;48.614;10.226;2023-08-06T17:16:10;12.90;99.90
23801;DHT22;12081;48.614;10.226;2023-08-06T17:18:56;13.80;99.90
23801;DHT22;12081;48.614;10.226;2023-08-06T17:21:40;13.10;99.90
23801;DHT22;12081;48.614;10.226;2023-08-06T17:24:24;12.90;99.90
23801;DHT22;12081;48.614;10.226;2023-08-06T17:27:08;13.00;99.90
23801;DHT22;12081;48.614;10.226;2023-08-06T17:29:52;13.50;99.90
23801;DHT22;12081;48.614;10.226;2023-08-06T17:32:37;13.00;99.90
23801;DHT22;12081;48.614;10.226;2023-08-06T17:35:23;13.10;99.90
23801;DHT22;12081;48.614;10.226;2023-08-06T17:38:11;13.00;99.90
23801;DHT22;12081;48.614;10.226;2023-08-06T17:40:56;12.90;99.90
23801;DHT22;12081;48.614;10.226;2023-08-06T17:43:42;13.20;99.90
23801;DHT22;12081;48.614;10.226;2023-08-06T17:46:25;12.80;99.90
23801;DHT22;12081;48.614;10.226;2023-08-06T17:49:10;12.80;99.90
23801;DHT22;12081;48.614;10.226;2023-08-06T17:51:54;12.60;99.90
23801;DHT22;12081;48.614;10.226;2023-08-06T17:54:38;12.50;99.90
23801;DHT22;12081;48.614;10.226;2023-08-06T17:57:22;12.40;99.90
23801;DHT22;12081;48.614;10.226;2023-08-06T18:00:06;12.30;99.90
23801;DHT22;12081;48.614;10.226;2023-08-06T18:02:51;12.30;99.90
23801;DHT22;12081;48.614;10.226;2023-08-06T18:05:35;12.20;99.90
23801;DHT22;12081;48.614;10.226;2023-08-06T18:08:19;12.50;99.90
23801;DHT22;12081;48.614;10.226;2023-08-06T18:11:03;12.00;99.90
23801;DHT22;12081;48.614;10.226;2023-08-06T18:13:47;13.70;99.90
23801;DHT22;12081;48.614;10.226;2023-08-06T18:16:31;11.70;99.90
23801;DHT22;12081;48.614;10.226;2023-08-06T18:19:15;11.60;99.90
23801;DHT22;12081;48.614;10.226;2023-08-06T18:22:00;11.60;99.90
23801;DHT22;12081;48.614;10.226;2023-08-06T18:24:44;11.60;99.90
23801;DHT22;12081;48.614;10.226;2023-08-06T18:27:28;11.50;99.90
23801;DHT22;12081;48.614;10.226;2023-08-06T18:30:13;11.50;99.90
23801;DHT22;12081;48.614;10.226;2023-08-06T18:32:57;11.50;99.90
23801;DHT22;12081;48.614;10.226;2023-08-06T18:35:42;12.10;99.90
23801;DHT22;12081;48.614;10.226;2023-08-06T18:38:26;11.60;99.90
23801;DHT22;12081;48.614;10.226;2023-08-06T18:41:10;11.50;99.90
23801;DHT22;12081;48.614;10.226;2023-08-06T18:43:54;11.50;99.90
23801;DHT22;12081;48.614;10.226;2023-08-06T18:46:38;11.60;99.90
23801;DHT22;12081;48.614;10.226;2023-08-06T18:49:23;11.50;99.90
23801;DHT22;12081;48.614;10.226;2023-08-06T18:52:07;11.60;99.90
23801;DHT22;12081;48.614;10.226;2023-08-06T18:54:51;11.50;99.90
23801;DHT22;12081;48.614;10.226;2023-08-06T18:57:36;11.60;99.90
23801;DHT22;12081;48.614;10.226;2023-08-06T19:00:20;11.50;99.90
23801;DHT22;12081;48.614;10.226;2023-08-06T19:03:04;11.50;99.90
23801;DHT22;12081;48.614;10.226;2023-08-06T19:05:48;11.50;99.90
23801;DHT22;12081;48.614;10.226;2023-08-06T19:08:32;11.50;99.90
23801;DHT22;12081;48.614;10.226;2023-08-06T19:11:16;11.80;99.90
23801;DHT22;12081;48.614;10.226;2023-08-06T19:14:00;11.50;99.90
23801;DHT22;12081;48.614;10.226;2023-08-06T19:16:45;11.40;99.90
23801;DHT22;12081;48.614;10.226;2023-08-06T19:19:31;11.40;99.90
23801;DHT22;12081;48.614;10.226;2023-08-06T19:22:15;11.80;99.90
23801;DHT22;12081;48.614;10.226;2023-08-06T19:24:59;11.40;99.90
23801;DHT22;12081;48.614;10.226;2023-08-06T19:27:43;11.30;99.90
23801;DHT22;12081;48.614;10.226;2023-08-06T19:30:28;11.30;99.90
23801;DHT22;12081;48.614;10.226;2023-08-06T19:33:12;11.30;99.90
23801;DHT22;12081;48.614;10.226;2023-08-06T19:35:59;11.20;99.90
23801;DHT22;12081;48.614;10.226;2023-08-06T19:38:43;11.20;99.90
23801;DHT22;12081;48.614;10.226;2023-08-06T19:41:28;11.20;99.90
23801;DHT22;12081;48.614;10.226;2023-08-06T19:44:12;11.20;99.90
23801;DHT22;12081;48.614;10.226;2023-08-06T19:46:56;11.20;99.90
23801;DHT22;12081;48.614;10.226;2023-08-06T19:49:40;11.20;99.90
23801;DHT22;12081;48.614;10.226;2023-08-06T19:52:24;11.20;99.90
23801;DHT22;12081;48.614;10.226;2023-08-06T19:55:08;11.10;99.90
23801;DHT22;12081;48.614;10.226;2023-08-06T19:57:52;11.10;99.90
23801;DHT22;12081;48.614;10.226;2023-08-06T20:00:39;11.10;99.90
23801;DHT22;12081;48.614;10.226;2023-08-06T20:03:23;11.00;99.90
23801;DHT22;12081;48.614;10.226;2023-08-06T20:06:08;11.00;99.90
23801;DHT22;12081;48.614;10.226;2023-08-06T20:08:54;11.20;99.90
23801;DHT22;12081;48.614;10.226;2023-08-06T20:11:38;11.20;99.90
23801;DHT22;12081;48.614;10.226;2023-08-06T20:14:22;11.10;99.90
23801;DHT22;12081;48.614;10.226;2023-08-06T20:17:07;11.10;99.90
23801;DHT22;12081;48.614;10.226;2023-08-06T20:19:50;11.80;99.90
23801;DHT22;12081;48.614;10.226;2023-08-06T20:22:35;11.00;99.90
23801;DHT22;12081;48.614;10.226;2023-08-06T20:25:19;11.00;99.90
23801;DHT22;12081;48.614;10.226;2023-08-06T20:28:03;11.00;99.90
23801;DHT22;12081;48.614;10.226;2023-08-06T20:30:47;11.00;99.90
23801;DHT22;12081;48.614;10.226;2023-08-06T20:33:34;9.90;99.90
23801;DHT22;12081;48.614;10.226;2023-08-06T20:36:19;11.10;99.90
23801;DHT22;12081;48.614;10.226;2023-08-06T20:39:03;11.90;99.90
23801;DHT22;12081;48.614;10.226;2023-08-06T20:41:47;11.30;99.90
23801;DHT22;12081;48.614;10.226;2023-08-06T20:44:31;11.20;99.90
23801;DHT22;12081;48.614;10.226;2023-08-06T20:47:18;11.20;99.90
23801;DHT22;12081;48.614;10.226;2023-08-06T20:50:03;11.20;99.90
23801;DHT22;12081;48.614;10.226;2023-08-06T20:52:47;11.30;99.90
23801;DHT22;12081;48.614;10.226;2023-08-06T20:55:31;11.30;99.90
23801;DHT22;12081;48.614;10.226;2023-08-06T20:58:15;11.20;99.90
23801;DHT22;12081;48.614;10.226;2023-08-06T21:01:00;12.00;99.90
23801;DHT22;12081;48.614;10.226;2023-08-06T21:03:45;11.30;99.90
23801;DHT22;12081;48.614;10.226;2023-08-06T21:06:29;11.30;99.90
23801;DHT22;12081;48.614;10.226;2023-08-06T21:09:13;11.30;99.90
23801;DHT22;12081;48.614;10.226;2023-08-06T21:11:57;11.60;99.90
23801;DHT22;12081;48.614;10.226;2023-08-06T21:14:41;11.30;99.90
23801;DHT22;12081;48.614;10.226;2023-08-06T21:17:26;11.30;99.90
23801;DHT22;12081;48.614;10.226;2023-08-06T21:20:10;11.90;99.90
23801;DHT22;12081;48.614;10.226;2023-08-06T21:22:54;11.40;99.90
23801;DHT22;12081;48.614;10.226;2023-08-06T21:25:38;11.80;99.90
23801;DHT22;12081;48.614;10.226;2023-08-06T21:28:24;11.50;99.90
23801;DHT22;12081;48.614;10.226;2023-08-06T21:31:10;11.50;99.90
23801;DHT22;12081;48.614;10.226;2023-08-06T21:33:55;11.60;99.90
23801;DHT22;12081;48.614;10.226;2023-08-06T21:36:39;13.00;99.90
23801;DHT22;12081;48.614;10.226;2023-08-06T21:39:23;12.20;99.90
23801;DHT22;12081;48.614;10.226;2023-08-06T21:42:07;13.20;99.90
23801;DHT22;12081;48.614;10.226;2023-08-06T21:44:52;13.60;99.90
23801;DHT22;12081;48.614;10.226;2023-08-06T21:47:36;13.00;99.90
23801;DHT22;12081;48.614;10.226;2023-08-06T21:50:20;12.80;99.90
23801;DHT22;12081;48.614;10.226;2023-08-06T21:53:04;13.00;99.90
23801;DHT22;12081;48.614;10.226;2023-08-06T21:55:48;11.80;99.90